»·PEaware :: UAL314 KLAX-KDEN

UAL314 :: KLAX-KDEN

FLIGHT INFORMATION

Flight Status: Arrived
Operator:
United Airlines
More flights by this operator :: More flights under this callsign
Pilot: Jose A. (18565)
Aircraft: BOEING 777-200
(B772)
More flights by this aircraft type
Origin: KLAX Los Angeles Intl
United States
Destination: KDEN Denver Intl
United States
More flights between these airports :: More routes between these airports
Route: +ORCKA3 LAS J146 DVC WOLLF CREDE3
File this flight plan on PilotEdge
Remarks:
Altitude:
(Current/Filed)
39,000ft
Speed:
(Current/Filed)
500kts
Departed: 16-Aug-19 08:53 AM
Arrived: 16-Aug-19 10:41 AM
Distance/Time
Traveled:
747nm/1:47
Distance/Time
To Go:
Arrived

Flight Plot

Page will automatically refresh every two minutes.


Map Options




Map Legend


Flown Route
Filed Route
Departure Airport
Arrival Airport
Navaid (VOR, NDB)
Fix

Horizontal Profiles

Position Reports

Time Latitude Longitude Heading Altitude Ground
Speed
16-Aug-19 08:30 33.940264 -118.399936 33 140ft 0kts
16-Aug-19 08:31 33.940264 -118.399936 33 140ft 0kts
16-Aug-19 08:32 33.940264 -118.399936 33 140ft 0kts
16-Aug-19 08:33 33.940264 -118.399936 33 140ft 0kts
16-Aug-19 08:34 33.940264 -118.399936 33 140ft 0kts
16-Aug-19 08:35 33.940264 -118.399936 33 140ft 0kts
16-Aug-19 08:36 33.940264 -118.399936 33 140ft 0kts
16-Aug-19 08:37 33.940264 -118.399936 33 140ft 0kts
16-Aug-19 08:38 33.940264 -118.399936 33 140ft 0kts
16-Aug-19 08:39 33.940264 -118.399936 33 140ft 0kts
16-Aug-19 08:40 33.940262 -118.399937 32 140ft 0kts
16-Aug-19 08:41 33.939836 -118.400394 49 140ft 2kts
16-Aug-19 08:42 33.939508 -118.401051 73 140ft 2kts
16-Aug-19 08:43 33.939433 -118.401547 83 140ft 0kts
16-Aug-19 08:44 33.939433 -118.401547 83 140ft 0kts
16-Aug-19 08:45 33.939433 -118.401547 83 140ft 0kts
16-Aug-19 08:46 33.939502 -118.400867 82 140ft 3kts
16-Aug-19 08:47 33.939317 -118.398054 146 140ft 10kts
16-Aug-19 08:48 33.939345 -118.394460 83 140ft 12kts
16-Aug-19 08:49 33.939920 -118.388810 82 140ft 20kts
16-Aug-19 08:50 33.940643 -118.381817 82 140ft 15kts
16-Aug-19 08:51 33.940413 -118.380383 145 140ft 9kts
16-Aug-19 08:52 33.939073 -118.387316 263 140ft 98kts
16-Aug-19 08:53 33.933315 -118.444534 262 1375ft 217kts
16-Aug-19 08:54 33.914380 -118.523487 248 4229ft 271kts
16-Aug-19 08:55 33.884042 -118.609465 238 5815ft 285kts
16-Aug-19 08:56 33.812642 -118.619057 140 9283ft 309kts
16-Aug-19 08:57 33.809483 -118.521268 49 11949ft 348kts
16-Aug-19 08:58 33.888714 -118.463370 26 13854ft 393kts
16-Aug-19 08:59 33.970290 -118.372231 54 16768ft 420kts
16-Aug-19 09:00 34.035608 -118.251565 53 19551ft 439kts
16-Aug-19 09:01 34.105914 -118.127539 53 21974ft 459kts
16-Aug-19 09:02 34.179388 -117.997265 53 24147ft 477kts
16-Aug-19 09:03 34.255403 -117.862249 53 26154ft 495kts
16-Aug-19 09:04 34.333657 -117.722008 53 28038ft 512kts
16-Aug-19 09:05 34.417252 -117.579343 51 29890ft 527kts
16-Aug-19 09:06 34.503103 -117.435337 51 32409ft 526kts
16-Aug-19 09:07 34.588490 -117.291675 51 34875ft 523kts
16-Aug-19 09:08 34.673329 -117.148373 51 36894ft 522kts
16-Aug-19 09:09 34.757827 -117.005209 51 38675ft 520kts
16-Aug-19 09:10 34.841752 -116.861783 52 39012ft 521kts
16-Aug-19 09:11 34.926318 -116.718144 48 39001ft 520kts
16-Aug-19 09:12 35.023847 -116.589319 43 39010ft 518kts
16-Aug-19 09:13 35.122252 -116.460211 43 39017ft 519kts
16-Aug-19 09:14 35.220477 -116.330562 43 39019ft 520kts
16-Aug-19 09:15 35.318654 -116.200010 43 39023ft 521kts
16-Aug-19 09:16 35.416595 -116.069172 43 39007ft 522kts
16-Aug-19 09:17 35.514955 -115.937518 43 39010ft 522kts
16-Aug-19 09:18 35.556342 -115.881678 43 39009ft 523kts
16-Aug-19 09:19 35.654196 -115.749140 44 39010ft 523kts
16-Aug-19 09:20 35.751079 -115.615474 44 39009ft 524kts
16-Aug-19 09:21 35.840687 -115.491448 44 39012ft 523kts
16-Aug-19 09:22 35.937867 -115.357828 44 39017ft 523kts
16-Aug-19 09:23 36.034246 -115.223336 43 38996ft 523kts
16-Aug-19 09:24 36.110846 -115.069900 69 38973ft 538kts
16-Aug-19 09:25 36.161249 -114.895520 66 38965ft 537kts
16-Aug-19 09:26 36.214006 -114.723028 66 38967ft 537kts
16-Aug-19 09:27 36.266623 -114.549381 66 38987ft 537kts
16-Aug-19 09:28 36.319122 -114.376248 66 39017ft 537kts
16-Aug-19 09:29 36.371742 -114.202907 66 39030ft 537kts
16-Aug-19 09:30 36.423789 -114.029197 66 39041ft 537kts
16-Aug-19 09:31 36.475538 -113.855289 66 39074ft 537kts
16-Aug-19 09:32 36.527234 -113.681302 66 39097ft 536kts
16-Aug-19 09:33 36.578483 -113.506777 66 39155ft 537kts
16-Aug-19 09:34 36.629264 -113.332289 66 39174ft 537kts
16-Aug-19 09:35 36.679825 -113.157037 67 39196ft 537kts
16-Aug-19 09:36 36.730079 -112.981557 67 39222ft 536kts
16-Aug-19 09:37 36.780582 -112.806903 66 39240ft 536kts
16-Aug-19 09:38 36.830616 -112.631715 67 39247ft 537kts
16-Aug-19 09:39 36.880147 -112.455599 67 39256ft 537kts
16-Aug-19 09:40 36.929401 -112.279749 67 39256ft 537kts
16-Aug-19 09:42 36.978337 -112.103283 67 39229ft 537kts
16-Aug-19 09:43 37.027035 -111.926897 67 39224ft 536kts
16-Aug-19 09:44 37.076290 -111.750000 67 39197ft 537kts
16-Aug-19 09:45 37.124764 -111.573616 67 39174ft 536kts
16-Aug-19 09:46 37.172882 -111.396611 68 39170ft 536kts
16-Aug-19 09:47 37.220522 -111.219415 68 39184ft 536kts
16-Aug-19 09:48 37.267810 -111.041919 68 39205ft 536kts
16-Aug-19 09:49 37.314726 -110.863987 68 39229ft 535kts
16-Aug-19 09:50 37.361912 -110.687191 68 39252ft 535kts
16-Aug-19 09:51 37.408778 -110.509205 68 39275ft 534kts
16-Aug-19 09:52 37.454972 -110.331975 68 39296ft 533kts
16-Aug-19 09:53 37.500750 -110.155085 69 39314ft 531kts
16-Aug-19 09:54 37.546351 -109.977599 69 39329ft 531kts
16-Aug-19 09:55 37.591591 -109.800296 69 39332ft 531kts
16-Aug-19 09:56 37.636495 -109.623039 69 39342ft 531kts
16-Aug-19 09:57 37.681266 -109.445047 69 39346ft 532kts
16-Aug-19 09:58 37.725949 -109.267332 69 39334ft 532kts
16-Aug-19 09:58 37.762817 -109.118462 69 39316ft 532kts
16-Aug-19 10:00 37.818017 -108.912248 59 39296ft 525kts
16-Aug-19 10:01 37.893251 -108.755471 52 39293ft 522kts
16-Aug-19 10:01 37.957506 -108.625515 54 39277ft 522kts
16-Aug-19 10:03 38.045343 -108.445526 54 39306ft 516kts
16-Aug-19 10:03 38.108169 -108.315603 54 39319ft 518kts
16-Aug-19 10:04 38.182550 -108.161001 54 39353ft 506kts
16-Aug-19 10:06 38.269066 -107.980073 54 39318ft 519kts
16-Aug-19 10:06 38.331625 -107.849333 54 39277ft 511kts
16-Aug-19 10:07 38.405035 -107.693825 54 39268ft 513kts
16-Aug-19 10:08 38.477886 -107.537114 56 39314ft 517kts
16-Aug-19 10:09 38.549081 -107.377302 56 39301ft 518kts
16-Aug-19 10:10 38.620335 -107.217100 56 39364ft 518kts
16-Aug-19 10:11 38.691903 -107.057408 56 39405ft 518kts
16-Aug-19 10:12 38.761331 -106.901298 56 38483ft 517kts
16-Aug-19 10:13 38.831808 -106.740464 57 37094ft 516kts
16-Aug-19 10:14 38.903607 -106.581911 56 35113ft 509kts
16-Aug-19 10:15 38.975186 -106.427109 57 32938ft 498kts
16-Aug-19 10:16 39.044517 -106.275794 57 31050ft 482kts
16-Aug-19 10:17 39.110843 -106.128853 57 29055ft 471kts
16-Aug-19 10:18 39.175378 -105.983474 57 26968ft 462kts
16-Aug-19 10:19 39.238023 -105.841156 57 25044ft 450kts
16-Aug-19 10:20 39.298894 -105.701815 57 23057ft 442kts
16-Aug-19 10:21 39.357590 -105.567918 57 21896ft 398kts
16-Aug-19 10:22 39.410134 -105.450906 52 20880ft 368kts
16-Aug-19 10:23 39.466620 -105.346518 51 19474ft 364kts
16-Aug-19 10:24 39.521861 -105.241113 51 17993ft 355kts
16-Aug-19 10:25 39.577274 -105.135616 52 16392ft 348kts
16-Aug-19 10:26 39.630715 -105.032904 52 15193ft 340kts
16-Aug-19 10:27 39.682972 -104.932180 53 14043ft 334kts
16-Aug-19 10:28 39.743629 -104.847997 13 13066ft 309kts
16-Aug-19 10:29 39.823845 -104.839821 355 12010ft 263kts
16-Aug-19 10:30 39.895343 -104.839518 355 11616ft 254kts
16-Aug-19 10:31 39.965916 -104.839649 356 10319ft 253kts
16-Aug-19 10:32 40.036612 -104.839804 358 9021ft 254kts
16-Aug-19 10:33 40.091178 -104.802383 78 8031ft 232kts
16-Aug-19 10:34 40.092010 -104.724945 113 7950ft 191kts
16-Aug-19 10:35 40.050753 -104.687202 170 7621ft 183kts
16-Aug-19 10:36 40.003140 -104.685561 180 7018ft 159kts
16-Aug-19 10:37 39.958390 -104.686100 181 6635ft 161kts
16-Aug-19 10:38 39.913274 -104.686549 179 5751ft 161kts
16-Aug-19 10:39 39.878228 -104.686850 163 5444ft 42kts
16-Aug-19 10:40 39.876639 -104.685857 150 5444ft 0kts
16-Aug-19 10:41 39.876633 -104.685853 150 5444ft 1kts
16-Aug-19 10:42 39.872560 -104.685018 179 5444ft 4kts
16-Aug-19 10:43 39.869275 -104.684976 181 5444ft 24kts
16-Aug-19 10:44 39.862803 -104.685081 180 5444ft 19kts
16-Aug-19 10:45 39.860366 -104.682983 89 5444ft 6kts
16-Aug-19 10:46 39.858588 -104.681981 180 5444ft 18kts
16-Aug-19 10:47 39.857425 -104.678705 89 5444ft 10kts
16-Aug-19 10:48 39.857403 -104.675271 89 5444ft 8kts
16-Aug-19 10:49 39.857760 -104.672882 7 5444ft 6kts

Navigation Log

Ident Type
Flight plan parsing failed, navigation log unavailable